sensor_id;sensor_type;location;lat;lon;timestamp;P1;durP1;ratioP1;P2;durP2;ratioP2
5381;SDS011;2714;49.852;6.564;2023-03-01T00:01:51;13.50;;;8.70;;
5381;SDS011;2714;49.852;6.564;2023-03-01T00:05:51;13.57;;;8.43;;
5381;SDS011;2714;49.852;6.564;2023-03-01T00:09:52;14.33;;;8.53;;
5381;SDS011;2714;49.852;6.564;2023-03-01T00:13:54;11.23;;;8.70;;
5381;SDS011;2714;49.852;6.564;2023-03-01T00:17:57;12.03;;;8.20;;
5381;SDS011;2714;49.852;6.564;2023-03-01T00:21:57;15.47;;;9.17;;
5381;SDS011;2714;49.852;6.564;2023-03-01T00:25:58;13.40;;;8.27;;
5381;SDS011;2714;49.852;6.564;2023-03-01T00:29:58;12.80;;;8.50;;
5381;SDS011;2714;49.852;6.564;2023-03-01T00:34:00;14.43;;;8.50;;
5381;SDS011;2714;49.852;6.564;2023-03-01T00:38:04;12.97;;;8.70;;
5381;SDS011;2714;49.852;6.564;2023-03-01T00:42:05;13.23;;;9.60;;
5381;SDS011;2714;49.852;6.564;2023-03-01T00:46:07;13.67;;;9.17;;
5381;SDS011;2714;49.852;6.564;2023-03-01T00:50:09;12.93;;;9.93;;
5381;SDS011;2714;49.852;6.564;2023-03-01T00:54:11;14.93;;;9.17;;
5381;SDS011;2714;49.852;6.564;2023-03-01T00:58:11;15.13;;;9.83;;
5381;SDS011;2714;49.852;6.564;2023-03-01T01:02:12;16.60;;;10.60;;
5381;SDS011;2714;49.852;6.564;2023-03-01T01:06:13;14.50;;;9.87;;
5381;SDS011;2714;49.852;6.564;2023-03-01T01:10:35;13.90;;;8.80;;
5381;SDS011;2714;49.852;6.564;2023-03-01T01:14:35;14.33;;;10.93;;
5381;SDS011;2714;49.852;6.564;2023-03-01T01:18:36;16.33;;;10.33;;
5381;SDS011;2714;49.852;6.564;2023-03-01T01:22:37;14.07;;;10.00;;
5381;SDS011;2714;49.852;6.564;2023-03-01T01:26:37;16.57;;;10.60;;
5381;SDS011;2714;49.852;6.564;2023-03-01T01:30:38;15.63;;;9.93;;
5381;SDS011;2714;49.852;6.564;2023-03-01T01:34:38;17.20;;;10.73;;
5381;SDS011;2714;49.852;6.564;2023-03-01T01:38:39;17.00;;;11.20;;
5381;SDS011;2714;49.852;6.564;2023-03-01T01:42:42;21.00;;;11.10;;
5381;SDS011;2714;49.852;6.564;2023-03-01T01:46:44;17.93;;;11.50;;
5381;SDS011;2714;49.852;6.564;2023-03-01T01:50:45;16.83;;;10.70;;
5381;SDS011;2714;49.852;6.564;2023-03-01T01:55:07;22.03;;;13.60;;
5381;SDS011;2714;49.852;6.564;2023-03-01T01:59:11;19.57;;;10.50;;
5381;SDS011;2714;49.852;6.564;2023-03-01T02:03:13;18.07;;;11.37;;
5381;SDS011;2714;49.852;6.564;2023-03-01T02:07:21;19.27;;;11.93;;
5381;SDS011;2714;49.852;6.564;2023-03-01T02:11:23;19.43;;;12.40;;
5381;SDS011;2714;49.852;6.564;2023-03-01T02:15:25;17.40;;;11.43;;
5381;SDS011;2714;49.852;6.564;2023-03-01T02:19:30;19.80;;;12.60;;
5381;SDS011;2714;49.852;6.564;2023-03-01T02:23:45;19.97;;;11.20;;
5381;SDS011;2714;49.852;6.564;2023-03-01T02:28:08;17.87;;;11.27;;
5381;SDS011;2714;49.852;6.564;2023-03-01T02:32:13;17.07;;;10.63;;
5381;SDS011;2714;49.852;6.564;2023-03-01T02:36:16;17.83;;;10.07;;
5381;SDS011;2714;49.852;6.564;2023-03-01T02:40:19;14.50;;;10.53;;
5381;SDS011;2714;49.852;6.564;2023-03-01T02:44:21;15.13;;;11.03;;
5381;SDS011;2714;49.852;6.564;2023-03-01T02:48:22;16.37;;;11.40;;
5381;SDS011;2714;49.852;6.564;2023-03-01T02:56:42;20.30;;;12.47;;
5381;SDS011;2714;49.852;6.564;2023-03-01T03:00:44;19.53;;;11.27;;
5381;SDS011;2714;49.852;6.564;2023-03-01T03:04:46;17.10;;;10.90;;
5381;SDS011;2714;49.852;6.564;2023-03-01T03:08:47;18.30;;;11.83;;
5381;SDS011;2714;49.852;6.564;2023-03-01T03:12:55;18.20;;;11.53;;
5381;SDS011;2714;49.852;6.564;2023-03-01T03:16:57;18.10;;;11.53;;
5381;SDS011;2714;49.852;6.564;2023-03-01T03:20:57;18.53;;;10.80;;
5381;SDS011;2714;49.852;6.564;2023-03-01T03:24:58;18.30;;;11.53;;
5381;SDS011;2714;49.852;6.564;2023-03-01T03:28:59;18.40;;;12.10;;
5381;SDS011;2714;49.852;6.564;2023-03-01T03:33:00;19.23;;;11.50;;
5381;SDS011;2714;49.852;6.564;2023-03-01T03:37:00;20.70;;;12.60;;
5381;SDS011;2714;49.852;6.564;2023-03-01T03:41:02;18.30;;;11.17;;
5381;SDS011;2714;49.852;6.564;2023-03-01T03:45:05;20.63;;;11.80;;
5381;SDS011;2714;49.852;6.564;2023-03-01T03:49:06;18.90;;;12.50;;
5381;SDS011;2714;49.852;6.564;2023-03-01T03:53:07;20.83;;;12.50;;
5381;SDS011;2714;49.852;6.564;2023-03-01T03:57:09;25.03;;;12.67;;
5381;SDS011;2714;49.852;6.564;2023-03-01T04:01:10;17.07;;;11.67;;
5381;SDS011;2714;49.852;6.564;2023-03-01T04:05:12;24.40;;;12.57;;
5381;SDS011;2714;49.852;6.564;2023-03-01T04:09:14;23.17;;;13.40;;
5381;SDS011;2714;49.852;6.564;2023-03-01T04:13:16;19.33;;;12.87;;
5381;SDS011;2714;49.852;6.564;2023-03-01T04:17:19;20.10;;;13.57;;
5381;SDS011;2714;49.852;6.564;2023-03-01T04:21:20;19.87;;;12.53;;
5381;SDS011;2714;49.852;6.564;2023-03-01T04:25:20;22.90;;;14.10;;
5381;SDS011;2714;49.852;6.564;2023-03-01T04:29:21;21.93;;;13.20;;
5381;SDS011;2714;49.852;6.564;2023-03-01T04:33:22;24.67;;;14.07;;
5381;SDS011;2714;49.852;6.564;2023-03-01T04:37:25;22.67;;;12.97;;
5381;SDS011;2714;49.852;6.564;2023-03-01T04:41:26;19.03;;;12.53;;
5381;SDS011;2714;49.852;6.564;2023-03-01T04:45:26;28.10;;;14.53;;
5381;SDS011;2714;49.852;6.564;2023-03-01T04:49:27;20.00;;;13.03;;
5381;SDS011;2714;49.852;6.564;2023-03-01T04:53:28;25.50;;;13.83;;
5381;SDS011;2714;49.852;6.564;2023-03-01T04:57:29;19.97;;;12.87;;
5381;SDS011;2714;49.852;6.564;2023-03-01T05:01:30;24.50;;;14.40;;
5381;SDS011;2714;49.852;6.564;2023-03-01T05:05:32;22.03;;;13.80;;
5381;SDS011;2714;49.852;6.564;2023-03-01T05:09:34;25.43;;;14.17;;
5381;SDS011;2714;49.852;6.564;2023-03-01T05:13:36;30.47;;;15.50;;
5381;SDS011;2714;49.852;6.564;2023-03-01T05:17:37;21.90;;;14.57;;
5381;SDS011;2714;49.852;6.564;2023-03-01T05:21:38;21.53;;;13.67;;
5381;SDS011;2714;49.852;6.564;2023-03-01T05:25:58;25.80;;;14.30;;
5381;SDS011;2714;49.852;6.564;2023-03-01T05:29:59;24.90;;;14.60;;
5381;SDS011;2714;49.852;6.564;2023-03-01T05:34:13;24.17;;;14.57;;
5381;SDS011;2714;49.852;6.564;2023-03-01T05:38:13;22.57;;;13.37;;
5381;SDS011;2714;49.852;6.564;2023-03-01T05:42:15;24.10;;;14.00;;
5381;SDS011;2714;49.852;6.564;2023-03-01T05:46:15;23.73;;;13.20;;
5381;SDS011;2714;49.852;6.564;2023-03-01T05:54:19;24.43;;;14.40;;
5381;SDS011;2714;49.852;6.564;2023-03-01T05:58:21;24.43;;;13.23;;
5381;SDS011;2714;49.852;6.564;2023-03-01T06:02:22;26.73;;;15.63;;
5381;SDS011;2714;49.852;6.564;2023-03-01T06:06:23;24.27;;;14.13;;
5381;SDS011;2714;49.852;6.564;2023-03-01T06:10:24;18.80;;;12.80;;
5381;SDS011;2714;49.852;6.564;2023-03-01T06:14:24;26.50;;;15.47;;
5381;SDS011;2714;49.852;6.564;2023-03-01T06:18:25;36.30;;;18.70;;
5381;SDS011;2714;49.852;6.564;2023-03-01T06:22:26;30.73;;;17.70;;
5381;SDS011;2714;49.852;6.564;2023-03-01T06:26:27;28.20;;;14.23;;
5381;SDS011;2714;49.852;6.564;2023-03-01T06:30:27;25.30;;;14.50;;
5381;SDS011;2714;49.852;6.564;2023-03-01T06:34:28;26.90;;;15.67;;
5381;SDS011;2714;49.852;6.564;2023-03-01T06:38:29;22.40;;;13.17;;
5381;SDS011;2714;49.852;6.564;2023-03-01T06:42:29;25.03;;;15.33;;
5381;SDS011;2714;49.852;6.564;2023-03-01T06:46:30;25.37;;;14.93;;
5381;SDS011;2714;49.852;6.564;2023-03-01T06:50:31;25.00;;;14.40;;
5381;SDS011;2714;49.852;6.564;2023-03-01T06:54:31;23.93;;;14.87;;
5381;SDS011;2714;49.852;6.564;2023-03-01T06:58:32;29.00;;;15.70;;
5381;SDS011;2714;49.852;6.564;2023-03-01T07:02:33;25.07;;;14.97;;
5381;SDS011;2714;49.852;6.564;2023-03-01T07:06:33;26.03;;;15.47;;
5381;SDS011;2714;49.852;6.564;2023-03-01T07:10:34;20.70;;;14.37;;
5381;SDS011;2714;49.852;6.564;2023-03-01T07:14:34;23.17;;;13.60;;
5381;SDS011;2714;49.852;6.564;2023-03-01T07:18:35;24.13;;;14.57;;
5381;SDS011;2714;49.852;6.564;2023-03-01T07:22:35;25.63;;;16.07;;
5381;SDS011;2714;49.852;6.564;2023-03-01T07:26:36;28.33;;;16.30;;
5381;SDS011;2714;49.852;6.564;2023-03-01T07:30:37;26.40;;;16.27;;
5381;SDS011;2714;49.852;6.564;2023-03-01T07:34:38;25.33;;;14.93;;
5381;SDS011;2714;49.852;6.564;2023-03-01T07:38:38;27.03;;;14.90;;
5381;SDS011;2714;49.852;6.564;2023-03-01T07:42:39;27.60;;;16.30;;
5381;SDS011;2714;49.852;6.564;2023-03-01T07:46:39;26.43;;;16.13;;
5381;SDS011;2714;49.852;6.564;2023-03-01T07:50:40;24.00;;;15.47;;
5381;SDS011;2714;49.852;6.564;2023-03-01T07:54:42;25.90;;;16.50;;
5381;SDS011;2714;49.852;6.564;2023-03-01T07:58:44;25.13;;;15.47;;
5381;SDS011;2714;49.852;6.564;2023-03-01T08:02:45;30.93;;;15.90;;
5381;SDS011;2714;49.852;6.564;2023-03-01T08:06:46;28.57;;;16.47;;
5381;SDS011;2714;49.852;6.564;2023-03-01T08:10:46;30.97;;;16.30;;
5381;SDS011;2714;49.852;6.564;2023-03-01T08:14:47;24.20;;;15.97;;
5381;SDS011;2714;49.852;6.564;2023-03-01T08:18:47;22.03;;;15.30;;
5381;SDS011;2714;49.852;6.564;2023-03-01T08:22:48;17.47;;;10.40;;
5381;SDS011;2714;49.852;6.564;2023-03-01T08:26:49;25.00;;;16.93;;
5381;SDS011;2714;49.852;6.564;2023-03-01T08:30:49;23.90;;;16.67;;
5381;SDS011;2714;49.852;6.564;2023-03-01T08:34:50;25.33;;;16.63;;
5381;SDS011;2714;49.852;6.564;2023-03-01T08:38:51;26.20;;;16.87;;
5381;SDS011;2714;49.852;6.564;2023-03-01T08:42:52;23.80;;;16.07;;
5381;SDS011;2714;49.852;6.564;2023-03-01T08:46:52;26.47;;;17.20;;
5381;SDS011;2714;49.852;6.564;2023-03-01T08:50:54;27.03;;;16.90;;
5381;SDS011;2714;49.852;6.564;2023-03-01T08:54:55;28.97;;;17.43;;
5381;SDS011;2714;49.852;6.564;2023-03-01T08:58:56;33.03;;;20.43;;
5381;SDS011;2714;49.852;6.564;2023-03-01T09:02:57;26.23;;;17.60;;
5381;SDS011;2714;49.852;6.564;2023-03-01T09:06:58;23.23;;;16.00;;
5381;SDS011;2714;49.852;6.564;2023-03-01T09:11:01;25.17;;;16.40;;
5381;SDS011;2714;49.852;6.564;2023-03-01T09:15:03;28.00;;;17.70;;
5381;SDS011;2714;49.852;6.564;2023-03-01T09:19:04;28.10;;;17.80;;
5381;SDS011;2714;49.852;6.564;2023-03-01T09:23:05;39.60;;;18.50;;
5381;SDS011;2714;49.852;6.564;2023-03-01T09:27:05;25.53;;;17.17;;
5381;SDS011;2714;49.852;6.564;2023-03-01T09:31:08;25.00;;;17.60;;
5381;SDS011;2714;49.852;6.564;2023-03-01T09:35:09;24.77;;;17.50;;
5381;SDS011;2714;49.852;6.564;2023-03-01T09:39:09;26.30;;;17.90;;
5381;SDS011;2714;49.852;6.564;2023-03-01T09:47:43;23.30;;;16.80;;
5381;SDS011;2714;49.852;6.564;2023-03-01T09:51:47;22.63;;;17.37;;
5381;SDS011;2714;49.852;6.564;2023-03-01T10:04:41;27.87;;;17.60;;
5381;SDS011;2714;49.852;6.564;2023-03-01T10:08:50;26.10;;;18.70;;
5381;SDS011;2714;49.852;6.564;2023-03-01T10:12:55;22.47;;;18.30;;
5381;SDS011;2714;49.852;6.564;2023-03-01T10:17:04;22.37;;;19.07;;
5381;SDS011;2714;49.852;6.564;2023-03-01T10:21:17;21.30;;;17.73;;
5381;SDS011;2714;49.852;6.564;2023-03-01T10:25:36;30.13;;;18.67;;
5381;SDS011;2714;49.852;6.564;2023-03-01T10:33:57;20.40;;;18.07;;
5381;SDS011;2714;49.852;6.564;2023-03-01T10:38:02;21.00;;;18.80;;
5381;SDS011;2714;49.852;6.564;2023-03-01T10:42:05;21.80;;;19.40;;
5381;SDS011;2714;49.852;6.564;2023-03-01T10:46:27;21.03;;;18.53;;
5381;SDS011;2714;49.852;6.564;2023-03-01T10:50:32;24.40;;;20.77;;
5381;SDS011;2714;49.852;6.564;2023-03-01T10:54:33;23.63;;;19.70;;
5381;SDS011;2714;49.852;6.564;2023-03-01T10:58:34;24.43;;;20.80;;
5381;SDS011;2714;49.852;6.564;2023-03-01T11:02:36;21.67;;;19.00;;
5381;SDS011;2714;49.852;6.564;2023-03-01T11:06:38;22.80;;;20.10;;
5381;SDS011;2714;49.852;6.564;2023-03-01T11:10:39;21.60;;;18.57;;
5381;SDS011;2714;49.852;6.564;2023-03-01T11:14:46;22.80;;;20.37;;
5381;SDS011;2714;49.852;6.564;2023-03-01T11:19:00;21.90;;;19.53;;
5381;SDS011;2714;49.852;6.564;2023-03-01T11:23:13;23.73;;;19.93;;
5381;SDS011;2714;49.852;6.564;2023-03-01T11:27:23;21.50;;;19.27;;
5381;SDS011;2714;49.852;6.564;2023-03-01T11:31:27;22.43;;;20.03;;
5381;SDS011;2714;49.852;6.564;2023-03-01T11:35:29;25.30;;;22.50;;
5381;SDS011;2714;49.852;6.564;2023-03-01T11:39:43;26.70;;;22.20;;
5381;SDS011;2714;49.852;6.564;2023-03-01T11:43:52;23.47;;;21.00;;
5381;SDS011;2714;49.852;6.564;2023-03-01T11:52:35;22.10;;;19.30;;
5381;SDS011;2714;49.852;6.564;2023-03-01T11:57:19;21.87;;;19.17;;
5381;SDS011;2714;49.852;6.564;2023-03-01T12:05:45;25.67;;;20.30;;
5381;SDS011;2714;49.852;6.564;2023-03-01T12:19:04;21.83;;;19.53;;
5381;SDS011;2714;49.852;6.564;2023-03-01T12:27:40;21.77;;;17.90;;
5381;SDS011;2714;49.852;6.564;2023-03-01T12:31:55;22.23;;;18.77;;
5381;SDS011;2714;49.852;6.564;2023-03-01T12:40:45;22.00;;;18.63;;
5381;SDS011;2714;49.852;6.564;2023-03-01T12:49:26;21.90;;;18.10;;
5381;SDS011;2714;49.852;6.564;2023-03-01T12:53:35;23.20;;;19.13;;
5381;SDS011;2714;49.852;6.564;2023-03-01T12:57:40;25.47;;;19.10;;
5381;SDS011;2714;49.852;6.564;2023-03-01T13:01:54;22.40;;;18.70;;
5381;SDS011;2714;49.852;6.564;2023-03-01T13:06:15;23.00;;;19.17;;
5381;SDS011;2714;49.852;6.564;2023-03-01T13:14:44;24.53;;;18.57;;
5381;SDS011;2714;49.852;6.564;2023-03-01T13:18:46;25.00;;;17.00;;
5381;SDS011;2714;49.852;6.564;2023-03-01T13:22:47;24.20;;;16.83;;
5381;SDS011;2714;49.852;6.564;2023-03-01T13:31:07;21.57;;;14.67;;
5381;SDS011;2714;49.852;6.564;2023-03-01T13:43:40;22.37;;;14.57;;
5381;SDS011;2714;49.852;6.564;2023-03-01T13:47:42;20.90;;;14.03;;
5381;SDS011;2714;49.852;6.564;2023-03-01T13:51:48;23.80;;;14.60;;
5381;SDS011;2714;49.852;6.564;2023-03-01T14:00:28;26.00;;;16.17;;
5381;SDS011;2714;49.852;6.564;2023-03-01T14:04:37;25.83;;;16.93;;
5381;SDS011;2714;49.852;6.564;2023-03-01T14:08:38;22.90;;;15.83;;
5381;SDS011;2714;49.852;6.564;2023-03-01T14:12:44;27.53;;;17.20;;
5381;SDS011;2714;49.852;6.564;2023-03-01T14:17:04;22.10;;;15.53;;
5381;SDS011;2714;49.852;6.564;2023-03-01T14:21:27;23.60;;;16.67;;
5381;SDS011;2714;49.852;6.564;2023-03-01T14:25:29;24.17;;;16.67;;
5381;SDS011;2714;49.852;6.564;2023-03-01T14:29:36;26.37;;;16.50;;
5381;SDS011;2714;49.852;6.564;2023-03-01T14:33:37;25.33;;;15.67;;
5381;SDS011;2714;49.852;6.564;2023-03-01T14:37:41;22.90;;;14.77;;
5381;SDS011;2714;49.852;6.564;2023-03-01T14:41:41;24.10;;;15.77;;
5381;SDS011;2714;49.852;6.564;2023-03-01T14:45:42;23.20;;;16.07;;
5381;SDS011;2714;49.852;6.564;2023-03-01T14:49:49;22.07;;;13.93;;
5381;SDS011;2714;49.852;6.564;2023-03-01T14:53:53;29.50;;;18.10;;
5381;SDS011;2714;49.852;6.564;2023-03-01T14:57:55;21.10;;;13.93;;
5381;SDS011;2714;49.852;6.564;2023-03-01T15:01:57;21.77;;;14.70;;
5381;SDS011;2714;49.852;6.564;2023-03-01T15:06:00;22.13;;;13.60;;
5381;SDS011;2714;49.852;6.564;2023-03-01T15:10:02;22.60;;;15.00;;
5381;SDS011;2714;49.852;6.564;2023-03-01T15:14:24;23.63;;;14.10;;
5381;SDS011;2714;49.852;6.564;2023-03-01T15:18:28;19.30;;;13.80;;
5381;SDS011;2714;49.852;6.564;2023-03-01T15:22:29;21.43;;;13.17;;
5381;SDS011;2714;49.852;6.564;2023-03-01T15:26:32;19.37;;;12.93;;
5381;SDS011;2714;49.852;6.564;2023-03-01T15:30:39;18.27;;;11.80;;
5381;SDS011;2714;49.852;6.564;2023-03-01T15:34:42;20.30;;;11.23;;
5381;SDS011;2714;49.852;6.564;2023-03-01T15:38:53;17.07;;;11.40;;
5381;SDS011;2714;49.852;6.564;2023-03-01T15:42:55;16.10;;;10.50;;
5381;SDS011;2714;49.852;6.564;2023-03-01T15:46:56;17.43;;;10.77;;
5381;SDS011;2714;49.852;6.564;2023-03-01T15:50:57;16.37;;;10.70;;
5381;SDS011;2714;49.852;6.564;2023-03-01T15:54:59;18.17;;;10.60;;
5381;SDS011;2714;49.852;6.564;2023-03-01T15:59:02;15.60;;;9.57;;
5381;SDS011;2714;49.852;6.564;2023-03-01T16:03:03;16.40;;;9.50;;
5381;SDS011;2714;49.852;6.564;2023-03-01T16:07:03;13.90;;;9.17;;
5381;SDS011;2714;49.852;6.564;2023-03-01T16:11:05;16.57;;;11.57;;
5381;SDS011;2714;49.852;6.564;2023-03-01T16:15:16;16.20;;;11.20;;
5381;SDS011;2714;49.852;6.564;2023-03-01T16:19:19;15.03;;;11.03;;
5381;SDS011;2714;49.852;6.564;2023-03-01T16:23:19;18.33;;;10.73;;
5381;SDS011;2714;49.852;6.564;2023-03-01T16:27:21;18.37;;;11.83;;
5381;SDS011;2714;49.852;6.564;2023-03-01T16:31:22;19.20;;;11.70;;
5381;SDS011;2714;49.852;6.564;2023-03-01T16:35:26;14.83;;;9.20;;
5381;SDS011;2714;49.852;6.564;2023-03-01T16:39:27;19.30;;;12.50;;
5381;SDS011;2714;49.852;6.564;2023-03-01T16:43:28;18.50;;;11.17;;
5381;SDS011;2714;49.852;6.564;2023-03-01T16:47:29;15.37;;;9.27;;
5381;SDS011;2714;49.852;6.564;2023-03-01T16:51:30;19.40;;;11.63;;
5381;SDS011;2714;49.852;6.564;2023-03-01T16:55:32;16.17;;;10.37;;
5381;SDS011;2714;49.852;6.564;2023-03-01T16:59:33;16.50;;;11.20;;
5381;SDS011;2714;49.852;6.564;2023-03-01T17:03:33;15.17;;;10.10;;
5381;SDS011;2714;49.852;6.564;2023-03-01T17:07:34;17.57;;;11.10;;
5381;SDS011;2714;49.852;6.564;2023-03-01T17:11:35;19.53;;;10.47;;
5381;SDS011;2714;49.852;6.564;2023-03-01T17:15:40;13.17;;;9.37;;
5381;SDS011;2714;49.852;6.564;2023-03-01T17:19:41;18.93;;;12.20;;
5381;SDS011;2714;49.852;6.564;2023-03-01T17:23:43;18.23;;;10.40;;
5381;SDS011;2714;49.852;6.564;2023-03-01T17:27:45;19.00;;;11.37;;
5381;SDS011;2714;49.852;6.564;2023-03-01T17:31:46;14.90;;;10.27;;
5381;SDS011;2714;49.852;6.564;2023-03-01T17:35:46;32.67;;;19.70;;
5381;SDS011;2714;49.852;6.564;2023-03-01T17:39:47;15.13;;;9.87;;
5381;SDS011;2714;49.852;6.564;2023-03-01T17:43:47;20.43;;;12.23;;
5381;SDS011;2714;49.852;6.564;2023-03-01T17:47:48;22.73;;;10.80;;
5381;SDS011;2714;49.852;6.564;2023-03-01T17:51:48;14.93;;;9.77;;
5381;SDS011;2714;49.852;6.564;2023-03-01T17:55:57;17.20;;;9.60;;
5381;SDS011;2714;49.852;6.564;2023-03-01T17:59:59;20.80;;;11.90;;
5381;SDS011;2714;49.852;6.564;2023-03-01T18:04:00;14.33;;;9.13;;
5381;SDS011;2714;49.852;6.564;2023-03-01T18:08:00;11.03;;;9.17;;
5381;SDS011;2714;49.852;6.564;2023-03-01T18:12:01;16.00;;;8.90;;
5381;SDS011;2714;49.852;6.564;2023-03-01T18:16:09;13.80;;;8.80;;
5381;SDS011;2714;49.852;6.564;2023-03-01T18:20:11;14.70;;;8.10;;
5381;SDS011;2714;49.852;6.564;2023-03-01T18:24:12;10.40;;;8.27;;
5381;SDS011;2714;49.852;6.564;2023-03-01T18:28:13;18.80;;;12.63;;
5381;SDS011;2714;49.852;6.564;2023-03-01T18:32:13;28.57;;;14.53;;
5381;SDS011;2714;49.852;6.564;2023-03-01T18:36:25;20.10;;;13.23;;
5381;SDS011;2714;49.852;6.564;2023-03-01T18:40:27;20.23;;;11.77;;
5381;SDS011;2714;49.852;6.564;2023-03-01T18:44:28;15.47;;;10.57;;
5381;SDS011;2714;49.852;6.564;2023-03-01T18:48:29;21.13;;;10.33;;
5381;SDS011;2714;49.852;6.564;2023-03-01T18:52:30;19.20;;;10.20;;
5381;SDS011;2714;49.852;6.564;2023-03-01T18:56:31;17.13;;;10.00;;
5381;SDS011;2714;49.852;6.564;2023-03-01T19:00:33;16.30;;;11.07;;
5381;SDS011;2714;49.852;6.564;2023-03-01T19:04:33;18.60;;;12.17;;
5381;SDS011;2714;49.852;6.564;2023-03-01T19:08:34;13.80;;;10.17;;
5381;SDS011;2714;49.852;6.564;2023-03-01T19:12:35;13.43;;;8.63;;
5381;SDS011;2714;49.852;6.564;2023-03-01T19:16:35;18.40;;;10.03;;
5381;SDS011;2714;49.852;6.564;2023-03-01T19:20:37;13.53;;;9.03;;
5381;SDS011;2714;49.852;6.564;2023-03-01T19:24:37;14.47;;;9.00;;
5381;SDS011;2714;49.852;6.564;2023-03-01T19:28:38;13.20;;;8.87;;
5381;SDS011;2714;49.852;6.564;2023-03-01T19:32:39;14.07;;;9.93;;
5381;SDS011;2714;49.852;6.564;2023-03-01T19:36:40;15.10;;;10.30;;
5381;SDS011;2714;49.852;6.564;2023-03-01T19:40:41;13.70;;;8.90;;
5381;SDS011;2714;49.852;6.564;2023-03-01T19:44:42;15.83;;;9.03;;
5381;SDS011;2714;49.852;6.564;2023-03-01T19:48:42;14.77;;;9.43;;
5381;SDS011;2714;49.852;6.564;2023-03-01T19:52:43;13.53;;;9.10;;
5381;SDS011;2714;49.852;6.564;2023-03-01T19:56:45;15.40;;;9.33;;
5381;SDS011;2714;49.852;6.564;2023-03-01T20:00:46;13.97;;;9.03;;
5381;SDS011;2714;49.852;6.564;2023-03-01T20:04:46;15.90;;;9.53;;
5381;SDS011;2714;49.852;6.564;2023-03-01T20:08:47;16.20;;;9.47;;
5381;SDS011;2714;49.852;6.564;2023-03-01T20:12:48;18.07;;;10.13;;
5381;SDS011;2714;49.852;6.564;2023-03-01T20:16:48;16.07;;;10.00;;
5381;SDS011;2714;49.852;6.564;2023-03-01T20:20:49;16.43;;;9.70;;
5381;SDS011;2714;49.852;6.564;2023-03-01T20:24:50;18.77;;;11.70;;
5381;SDS011;2714;49.852;6.564;2023-03-01T20:28:51;47.77;;;20.43;;
5381;SDS011;2714;49.852;6.564;2023-03-01T20:32:53;53.37;;;22.70;;
5381;SDS011;2714;49.852;6.564;2023-03-01T20:36:53;55.70;;;23.27;;
5381;SDS011;2714;49.852;6.564;2023-03-01T20:40:56;50.63;;;22.40;;
5381;SDS011;2714;49.852;6.564;2023-03-01T20:45:01;23.00;;;12.23;;
5381;SDS011;2714;49.852;6.564;2023-03-01T20:49:02;18.90;;;9.90;;
5381;SDS011;2714;49.852;6.564;2023-03-01T20:53:03;25.73;;;13.83;;
5381;SDS011;2714;49.852;6.564;2023-03-01T20:57:04;15.63;;;10.10;;
5381;SDS011;2714;49.852;6.564;2023-03-01T21:01:05;14.40;;;10.47;;
5381;SDS011;2714;49.852;6.564;2023-03-01T21:05:06;13.97;;;9.63;;
5381;SDS011;2714;49.852;6.564;2023-03-01T21:09:07;16.40;;;9.50;;
5381;SDS011;2714;49.852;6.564;2023-03-01T21:13:08;14.70;;;8.90;;
5381;SDS011;2714;49.852;6.564;2023-03-01T21:17:11;14.00;;;9.17;;
5381;SDS011;2714;49.852;6.564;2023-03-01T21:21:14;16.87;;;9.30;;
5381;SDS011;2714;49.852;6.564;2023-03-01T21:25:17;16.90;;;9.80;;
5381;SDS011;2714;49.852;6.564;2023-03-01T21:29:17;15.40;;;8.90;;
5381;SDS011;2714;49.852;6.564;2023-03-01T21:33:18;13.70;;;8.50;;
5381;SDS011;2714;49.852;6.564;2023-03-01T21:37:18;14.77;;;9.00;;
5381;SDS011;2714;49.852;6.564;2023-03-01T21:41:22;19.03;;;10.97;;
5381;SDS011;2714;49.852;6.564;2023-03-01T21:45:27;17.60;;;9.37;;
5381;SDS011;2714;49.852;6.564;2023-03-01T21:49:28;14.60;;;8.83;;
5381;SDS011;2714;49.852;6.564;2023-03-01T21:53:29;15.77;;;9.27;;
5381;SDS011;2714;49.852;6.564;2023-03-01T21:57:31;14.40;;;8.70;;
5381;SDS011;2714;49.852;6.564;2023-03-01T22:01:31;14.00;;;8.70;;
5381;SDS011;2714;49.852;6.564;2023-03-01T22:05:32;12.40;;;8.30;;
5381;SDS011;2714;49.852;6.564;2023-03-01T22:09:33;13.23;;;8.00;;
5381;SDS011;2714;49.852;6.564;2023-03-01T22:13:35;16.00;;;8.90;;
5381;SDS011;2714;49.852;6.564;2023-03-01T22:17:35;15.33;;;8.77;;
5381;SDS011;2714;49.852;6.564;2023-03-01T22:21:40;15.33;;;9.17;;
5381;SDS011;2714;49.852;6.564;2023-03-01T22:25:42;15.77;;;8.97;;
5381;SDS011;2714;49.852;6.564;2023-03-01T22:29:42;15.40;;;8.80;;
5381;SDS011;2714;49.852;6.564;2023-03-01T22:33:43;17.53;;;11.00;;
5381;SDS011;2714;49.852;6.564;2023-03-01T22:37:44;18.90;;;10.77;;
5381;SDS011;2714;49.852;6.564;2023-03-01T22:41:45;16.20;;;9.87;;
5381;SDS011;2714;49.852;6.564;2023-03-01T22:45:46;14.77;;;9.33;;
5381;SDS011;2714;49.852;6.564;2023-03-01T22:49:47;16.53;;;9.57;;
5381;SDS011;2714;49.852;6.564;2023-03-01T22:53:48;21.10;;;9.40;;
5381;SDS011;2714;49.852;6.564;2023-03-01T22:57:49;14.60;;;8.70;;
5381;SDS011;2714;49.852;6.564;2023-03-01T23:01:50;15.93;;;9.13;;
5381;SDS011;2714;49.852;6.564;2023-03-01T23:05:52;14.20;;;8.67;;
5381;SDS011;2714;49.852;6.564;2023-03-01T23:09:52;18.80;;;9.73;;
5381;SDS011;2714;49.852;6.564;2023-03-01T23:13:53;15.43;;;9.33;;
5381;SDS011;2714;49.852;6.564;2023-03-01T23:17:54;14.50;;;8.60;;
5381;SDS011;2714;49.852;6.564;2023-03-01T23:21:55;15.73;;;9.27;;
5381;SDS011;2714;49.852;6.564;2023-03-01T23:25:56;13.87;;;8.13;;
5381;SDS011;2714;49.852;6.564;2023-03-01T23:29:57;24.90;;;9.30;;
5381;SDS011;2714;49.852;6.564;2023-03-01T23:33:58;16.27;;;9.20;;
5381;SDS011;2714;49.852;6.564;2023-03-01T23:37:59;13.73;;;8.07;;
5381;SDS011;2714;49.852;6.564;2023-03-01T23:42:00;12.93;;;7.77;;
5381;SDS011;2714;49.852;6.564;2023-03-01T23:46:00;15.13;;;8.90;;
5381;SDS011;2714;49.852;6.564;2023-03-01T23:50:01;16.77;;;8.87;;
5381;SDS011;2714;49.852;6.564;2023-03-01T23:54:02;16.10;;;9.90;;
5381;SDS011;2714;49.852;6.564;2023-03-01T23:58:04;16.57;;;9.00;;
